Hlavní strana
METAR-TAF:

METAR-TAF

Letiště :

Manizales, Kolumbie

zeměpisná šířka: 05-01-48N, zeměpisná délka: 075-27-50W, výška: 2063 m

Aktuální stav počasí

Zpráva byla vytvořena před 13 hodinami a 11 minutami, v 20:00 UTC
Západoseverozápadní vítr 6 kt
Teplota 23°C
Vlhkost vzduchu 69%
Tlak 1024 hPa
Viditelnost: 9000 m
Polojasno ve výšce 2000 ft
Oblačno až skoro zataženo ve výšce 8000 ft

METAR: SKMZ 052000Z 29006KT 9000 SCT020 BKN080 23/17 A3023 RMK HZ

Čas: 04:11 (09:11 UTC)


TAF: chybějící

Stav a předpovědi počasí z více než 4 000 letišť (zprávy METAR a TAF).

Červené a žluté tečky na mapě představují dostupné meteorologické stanice.

Když kurzor umístíte na tečku, zobrazí se název stanice.

Pak kliknutím zobrazíte stav a předpověď počasí.

Chcete-li změnit mapu, kliknutím na zelené tlačítko se znaménkem +mapu přiblížíte, kliknutím na zelené tlačítko se znaménkem – mapu oddálíte a kliknutím na zelené šipky přejdete na sousední mapy.


METAR-TAF: